sensor_id;sensor_type;location;lat;lon;timestamp;P1;durP1;ratioP1;P2;durP2;ratioP2
73321;SDS011;61549;37.044;22.128;2022-08-21T00:00:53;17.90;;;5.60;;
73321;SDS011;61549;37.044;22.128;2022-08-21T00:03:19;15.90;;;5.25;;
73321;SDS011;61549;37.044;22.128;2022-08-21T00:05:49;19.35;;;6.03;;
73321;SDS011;61549;37.044;22.128;2022-08-21T00:08:19;17.60;;;5.60;;
73321;SDS011;61549;37.044;22.128;2022-08-21T00:10:45;18.75;;;5.90;;
73321;SDS011;61549;37.044;22.128;2022-08-21T00:13:12;22.52;;;5.68;;
73321;SDS011;61549;37.044;22.128;2022-08-21T00:15:39;18.98;;;5.30;;
73321;SDS011;61549;37.044;22.128;2022-08-21T00:18:07;46.90;;;6.43;;
73321;SDS011;61549;37.044;22.128;2022-08-21T00:20:34;21.58;;;5.57;;
73321;SDS011;61549;37.044;22.128;2022-08-21T00:23:00;22.13;;;5.70;;
73321;SDS011;61549;37.044;22.128;2022-08-21T00:25:26;18.77;;;5.60;;
73321;SDS011;61549;37.044;22.128;2022-08-21T00:27:53;20.45;;;6.18;;
73321;SDS011;61549;37.044;22.128;2022-08-21T00:30:21;21.60;;;5.85;;
73321;SDS011;61549;37.044;22.128;2022-08-21T00:32:48;17.98;;;5.75;;
73321;SDS011;61549;37.044;22.128;2022-08-21T00:35:16;19.00;;;5.82;;
73321;SDS011;61549;37.044;22.128;2022-08-21T00:37:44;19.48;;;5.65;;
73321;SDS011;61549;37.044;22.128;2022-08-21T00:40:12;17.52;;;5.20;;
73321;SDS011;61549;37.044;22.128;2022-08-21T00:42:41;20.38;;;5.68;;
73321;SDS011;61549;37.044;22.128;2022-08-21T00:45:09;21.73;;;5.95;;
73321;SDS011;61549;37.044;22.128;2022-08-21T00:47:35;19.45;;;6.43;;
73321;SDS011;61549;37.044;22.128;2022-08-21T00:50:02;14.95;;;5.47;;
73321;SDS011;61549;37.044;22.128;2022-08-21T00:52:30;18.58;;;5.32;;
73321;SDS011;61549;37.044;22.128;2022-08-21T00:54:59;18.60;;;6.10;;
73321;SDS011;61549;37.044;22.128;2022-08-21T00:57:27;18.80;;;5.97;;
73321;SDS011;61549;37.044;22.128;2022-08-21T00:59:58;17.70;;;5.82;;
73321;SDS011;61549;37.044;22.128;2022-08-21T01:02:26;20.80;;;5.70;;
73321;SDS011;61549;37.044;22.128;2022-08-21T01:04:52;18.23;;;6.07;;
73321;SDS011;61549;37.044;22.128;2022-08-21T01:07:18;22.50;;;6.10;;
73321;SDS011;61549;37.044;22.128;2022-08-21T01:09:45;19.63;;;5.97;;
73321;SDS011;61549;37.044;22.128;2022-08-21T01:12:13;18.85;;;5.60;;
73321;SDS011;61549;37.044;22.128;2022-08-21T01:14:40;17.80;;;5.68;;
73321;SDS011;61549;37.044;22.128;2022-08-21T01:17:08;19.27;;;6.03;;
73321;SDS011;61549;37.044;22.128;2022-08-21T01:19:36;17.55;;;6.20;;
73321;SDS011;61549;37.044;22.128;2022-08-21T01:22:02;17.30;;;5.90;;
73321;SDS011;61549;37.044;22.128;2022-08-21T01:24:28;16.38;;;6.38;;
73321;SDS011;61549;37.044;22.128;2022-08-21T01:26:54;20.17;;;6.05;;
73321;SDS011;61549;37.044;22.128;2022-08-21T01:32:16;15.93;;;5.67;;
73321;SDS011;61549;37.044;22.128;2022-08-21T01:34:44;23.20;;;6.25;;
73321;SDS011;61549;37.044;22.128;2022-08-21T01:37:12;21.77;;;6.10;;
73321;SDS011;61549;37.044;22.128;2022-08-21T01:39:39;12.80;;;5.50;;
73321;SDS011;61549;37.044;22.128;2022-08-21T01:42:05;21.38;;;6.40;;
73321;SDS011;61549;37.044;22.128;2022-08-21T01:44:32;21.02;;;6.53;;
73321;SDS011;61549;37.044;22.128;2022-08-21T01:46:59;16.65;;;6.53;;
73321;SDS011;61549;37.044;22.128;2022-08-21T01:49:26;19.98;;;6.60;;
73321;SDS011;61549;37.044;22.128;2022-08-21T01:51:52;20.42;;;6.55;;
73321;SDS011;61549;37.044;22.128;2022-08-21T01:54:18;20.83;;;6.68;;
73321;SDS011;61549;37.044;22.128;2022-08-21T01:56:45;22.27;;;6.88;;
73321;SDS011;61549;37.044;22.128;2022-08-21T01:59:13;17.67;;;6.30;;
73321;SDS011;61549;37.044;22.128;2022-08-21T02:01:39;18.95;;;6.53;;
73321;SDS011;61549;37.044;22.128;2022-08-21T02:04:06;17.77;;;6.40;;
73321;SDS011;61549;37.044;22.128;2022-08-21T02:06:34;17.02;;;5.82;;
73321;SDS011;61549;37.044;22.128;2022-08-21T02:09:01;15.75;;;5.97;;
73321;SDS011;61549;37.044;22.128;2022-08-21T02:11:32;14.25;;;5.80;;
73321;SDS011;61549;37.044;22.128;2022-08-21T02:13:59;17.17;;;5.88;;
73321;SDS011;61549;37.044;22.128;2022-08-21T02:16:25;15.68;;;5.97;;
73321;SDS011;61549;37.044;22.128;2022-08-21T02:18:51;17.55;;;5.78;;
73321;SDS011;61549;37.044;22.128;2022-08-21T02:21:17;17.20;;;6.07;;
73321;SDS011;61549;37.044;22.128;2022-08-21T02:23:42;15.32;;;6.05;;
73321;SDS011;61549;37.044;22.128;2022-08-21T02:26:08;17.38;;;5.88;;
73321;SDS011;61549;37.044;22.128;2022-08-21T02:28:35;17.70;;;6.07;;
73321;SDS011;61549;37.044;22.128;2022-08-21T02:31:02;18.23;;;6.57;;
73321;SDS011;61549;37.044;22.128;2022-08-21T02:33:29;15.27;;;6.30;;
73321;SDS011;61549;37.044;22.128;2022-08-21T02:35:55;20.73;;;7.10;;
73321;SDS011;61549;37.044;22.128;2022-08-21T02:38:23;21.77;;;6.30;;
73321;SDS011;61549;37.044;22.128;2022-08-21T02:40:50;17.20;;;6.38;;
73321;SDS011;61549;37.044;22.128;2022-08-21T02:43:18;18.33;;;5.70;;
73321;SDS011;61549;37.044;22.128;2022-08-21T02:45:45;19.27;;;6.00;;
73321;SDS011;61549;37.044;22.128;2022-08-21T02:48:13;19.77;;;6.65;;
73321;SDS011;61549;37.044;22.128;2022-08-21T02:50:43;15.77;;;6.03;;
73321;SDS011;61549;37.044;22.128;2022-08-21T02:53:11;12.98;;;6.10;;
73321;SDS011;61549;37.044;22.128;2022-08-21T02:55:40;20.23;;;6.38;;
73321;SDS011;61549;37.044;22.128;2022-08-21T02:58:07;14.65;;;6.00;;
73321;SDS011;61549;37.044;22.128;2022-08-21T03:00:33;20.23;;;6.68;;
73321;SDS011;61549;37.044;22.128;2022-08-21T03:03:01;15.13;;;6.25;;
73321;SDS011;61549;37.044;22.128;2022-08-21T03:05:28;20.42;;;6.63;;
73321;SDS011;61549;37.044;22.128;2022-08-21T03:07:56;18.17;;;6.70;;
73321;SDS011;61549;37.044;22.128;2022-08-21T03:10:23;15.60;;;6.28;;
73321;SDS011;61549;37.044;22.128;2022-08-21T03:12:50;17.20;;;5.82;;
73321;SDS011;61549;37.044;22.128;2022-08-21T03:15:18;16.70;;;6.28;;
73321;SDS011;61549;37.044;22.128;2022-08-21T03:17:47;15.75;;;6.10;;
73321;SDS011;61549;37.044;22.128;2022-08-21T03:20:14;20.10;;;6.22;;
73321;SDS011;61549;37.044;22.128;2022-08-21T03:22:42;18.60;;;6.25;;
73321;SDS011;61549;37.044;22.128;2022-08-21T03:25:08;21.98;;;6.95;;
73321;SDS011;61549;37.044;22.128;2022-08-21T03:27:35;20.38;;;6.63;;
73321;SDS011;61549;37.044;22.128;2022-08-21T03:30:02;26.70;;;7.72;;
73321;SDS011;61549;37.044;22.128;2022-08-21T03:32:30;23.77;;;7.30;;
73321;SDS011;61549;37.044;22.128;2022-08-21T03:34:56;21.90;;;6.75;;
73321;SDS011;61549;37.044;22.128;2022-08-21T03:37:23;17.17;;;6.15;;
73321;SDS011;61549;37.044;22.128;2022-08-21T03:39:52;19.13;;;6.97;;
73321;SDS011;61549;37.044;22.128;2022-08-21T03:42:18;17.17;;;7.00;;
73321;SDS011;61549;37.044;22.128;2022-08-21T03:44:44;22.70;;;6.80;;
73321;SDS011;61549;37.044;22.128;2022-08-21T03:47:10;19.90;;;6.63;;
73321;SDS011;61549;37.044;22.128;2022-08-21T03:49:36;16.77;;;6.35;;
73321;SDS011;61549;37.044;22.128;2022-08-21T03:52:02;17.08;;;6.95;;
73321;SDS011;61549;37.044;22.128;2022-08-21T03:54:28;19.80;;;6.72;;
73321;SDS011;61549;37.044;22.128;2022-08-21T03:56:54;20.58;;;6.20;;
73321;SDS011;61549;37.044;22.128;2022-08-21T03:59:21;21.05;;;7.13;;
73321;SDS011;61549;37.044;22.128;2022-08-21T04:01:52;19.27;;;6.70;;
73321;SDS011;61549;37.044;22.128;2022-08-21T04:04:19;20.10;;;6.70;;
73321;SDS011;61549;37.044;22.128;2022-08-21T04:06:44;18.85;;;7.00;;
73321;SDS011;61549;37.044;22.128;2022-08-21T04:09:11;18.33;;;6.38;;
73321;SDS011;61549;37.044;22.128;2022-08-21T04:11:36;25.60;;;6.13;;
73321;SDS011;61549;37.044;22.128;2022-08-21T04:14:02;20.60;;;6.25;;
73321;SDS011;61549;37.044;22.128;2022-08-21T04:16:29;17.17;;;6.45;;
73321;SDS011;61549;37.044;22.128;2022-08-21T04:18:56;18.67;;;6.47;;
73321;SDS011;61549;37.044;22.128;2022-08-21T04:21:22;22.67;;;6.40;;
73321;SDS011;61549;37.044;22.128;2022-08-21T04:23:48;14.30;;;6.60;;
73321;SDS011;61549;37.044;22.128;2022-08-21T04:26:14;15.98;;;6.10;;
73321;SDS011;61549;37.044;22.128;2022-08-21T04:28:40;15.38;;;6.32;;
73321;SDS011;61549;37.044;22.128;2022-08-21T04:31:07;17.00;;;6.53;;
73321;SDS011;61549;37.044;22.128;2022-08-21T04:33:34;15.50;;;6.40;;
73321;SDS011;61549;37.044;22.128;2022-08-21T04:36:00;18.65;;;6.15;;
73321;SDS011;61549;37.044;22.128;2022-08-21T04:38:26;15.18;;;6.60;;
73321;SDS011;61549;37.044;22.128;2022-08-21T04:40:52;22.90;;;6.70;;
73321;SDS011;61549;37.044;22.128;2022-08-21T04:43:19;23.02;;;6.50;;
73321;SDS011;61549;37.044;22.128;2022-08-21T04:45:47;20.38;;;6.15;;
73321;SDS011;61549;37.044;22.128;2022-08-21T04:48:14;16.13;;;6.40;;
73321;SDS011;61549;37.044;22.128;2022-08-21T04:50:43;17.63;;;6.22;;
73321;SDS011;61549;37.044;22.128;2022-08-21T04:53:36;14.43;;;6.25;;
73321;SDS011;61549;37.044;22.128;2022-08-21T04:56:19;15.25;;;6.22;;
73321;SDS011;61549;37.044;22.128;2022-08-21T04:58:46;12.30;;;6.00;;
73321;SDS011;61549;37.044;22.128;2022-08-21T05:01:15;21.08;;;6.47;;
73321;SDS011;61549;37.044;22.128;2022-08-21T05:03:45;17.33;;;6.07;;
73321;SDS011;61549;37.044;22.128;2022-08-21T05:06:14;13.45;;;5.82;;
73321;SDS011;61549;37.044;22.128;2022-08-21T05:08:42;15.00;;;6.10;;
73321;SDS011;61549;37.044;22.128;2022-08-21T05:11:10;14.35;;;6.60;;
73321;SDS011;61549;37.044;22.128;2022-08-21T05:13:36;22.70;;;6.28;;
73321;SDS011;61549;37.044;22.128;2022-08-21T05:16:02;17.20;;;5.47;;
73321;SDS011;61549;37.044;22.128;2022-08-21T05:18:28;17.00;;;6.15;;
73321;SDS011;61549;37.044;22.128;2022-08-21T05:20:54;17.55;;;5.97;;
73321;SDS011;61549;37.044;22.128;2022-08-21T05:23:20;15.20;;;6.20;;
73321;SDS011;61549;37.044;22.128;2022-08-21T05:25:46;10.48;;;5.10;;
73321;SDS011;61549;37.044;22.128;2022-08-21T05:28:12;14.63;;;5.38;;
73321;SDS011;61549;37.044;22.128;2022-08-21T05:30:38;17.08;;;5.78;;
73321;SDS011;61549;37.044;22.128;2022-08-21T05:33:05;16.30;;;5.28;;
73321;SDS011;61549;37.044;22.128;2022-08-21T05:35:32;14.85;;;5.38;;
73321;SDS011;61549;37.044;22.128;2022-08-21T05:37:59;16.80;;;5.40;;
73321;SDS011;61549;37.044;22.128;2022-08-21T05:40:25;16.52;;;5.63;;
73321;SDS011;61549;37.044;22.128;2022-08-21T05:42:52;14.68;;;5.40;;
73321;SDS011;61549;37.044;22.128;2022-08-21T05:45:19;16.92;;;5.68;;
73321;SDS011;61549;37.044;22.128;2022-08-21T05:47:45;18.05;;;5.63;;
73321;SDS011;61549;37.044;22.128;2022-08-21T05:50:11;15.52;;;5.40;;
73321;SDS011;61549;37.044;22.128;2022-08-21T05:52:36;18.08;;;5.85;;
73321;SDS011;61549;37.044;22.128;2022-08-21T05:55:03;15.57;;;6.03;;
73321;SDS011;61549;37.044;22.128;2022-08-21T05:57:29;16.60;;;6.50;;
73321;SDS011;61549;37.044;22.128;2022-08-21T05:59:55;16.33;;;5.30;;
73321;SDS011;61549;37.044;22.128;2022-08-21T06:02:21;15.15;;;5.38;;
73321;SDS011;61549;37.044;22.128;2022-08-21T06:04:47;17.40;;;5.50;;
73321;SDS011;61549;37.044;22.128;2022-08-21T06:07:13;18.50;;;5.70;;
73321;SDS011;61549;37.044;22.128;2022-08-21T06:09:39;17.90;;;5.60;;
73321;SDS011;61549;37.044;22.128;2022-08-21T06:12:06;20.45;;;5.70;;
73321;SDS011;61549;37.044;22.128;2022-08-21T06:14:33;18.42;;;5.53;;
73321;SDS011;61549;37.044;22.128;2022-08-21T06:17:07;18.88;;;5.53;;
73321;SDS011;61549;37.044;22.128;2022-08-21T06:19:37;17.08;;;5.38;;
73321;SDS011;61549;37.044;22.128;2022-08-21T06:22:03;18.20;;;5.45;;
73321;SDS011;61549;37.044;22.128;2022-08-21T06:24:29;13.07;;;5.05;;
73321;SDS011;61549;37.044;22.128;2022-08-21T06:27:03;13.57;;;4.85;;
73321;SDS011;61549;37.044;22.128;2022-08-21T06:29:33;15.15;;;5.05;;
73321;SDS011;61549;37.044;22.128;2022-08-21T06:32:00;12.35;;;4.78;;
73321;SDS011;61549;37.044;22.128;2022-08-21T06:34:28;17.83;;;5.13;;
73321;SDS011;61549;37.044;22.128;2022-08-21T06:37:03;13.70;;;4.75;;
73321;SDS011;61549;37.044;22.128;2022-08-21T06:39:31;15.85;;;4.32;;
73321;SDS011;61549;37.044;22.128;2022-08-21T06:42:00;11.30;;;3.80;;
73321;SDS011;61549;37.044;22.128;2022-08-21T06:44:26;11.82;;;3.42;;
73321;SDS011;61549;37.044;22.128;2022-08-21T06:46:52;9.60;;;4.50;;
73321;SDS011;61549;37.044;22.128;2022-08-21T06:49:18;15.68;;;4.30;;
73321;SDS011;61549;37.044;22.128;2022-08-21T06:51:44;14.60;;;4.22;;
73321;SDS011;61549;37.044;22.128;2022-08-21T06:54:10;13.70;;;3.97;;
73321;SDS011;61549;37.044;22.128;2022-08-21T06:56:39;9.02;;;3.92;;
73321;SDS011;61549;37.044;22.128;2022-08-21T06:59:07;9.82;;;3.83;;
73321;SDS011;61549;37.044;22.128;2022-08-21T07:01:33;9.55;;;4.55;;
73321;SDS011;61549;37.044;22.128;2022-08-21T07:03:59;12.48;;;3.88;;
73321;SDS011;61549;37.044;22.128;2022-08-21T07:06:25;13.50;;;4.15;;
73321;SDS011;61549;37.044;22.128;2022-08-21T07:08:51;10.07;;;4.10;;
73321;SDS011;61549;37.044;22.128;2022-08-21T07:11:18;12.07;;;3.88;;
73321;SDS011;61549;37.044;22.128;2022-08-21T07:13:49;13.75;;;3.80;;
73321;SDS011;61549;37.044;22.128;2022-08-21T07:16:17;15.48;;;4.03;;
73321;SDS011;61549;37.044;22.128;2022-08-21T07:18:44;10.43;;;3.80;;
73321;SDS011;61549;37.044;22.128;2022-08-21T07:21:10;10.27;;;3.47;;
73321;SDS011;61549;37.044;22.128;2022-08-21T07:23:37;7.68;;;3.35;;
73321;SDS011;61549;37.044;22.128;2022-08-21T07:26:07;10.05;;;3.53;;
73321;SDS011;61549;37.044;22.128;2022-08-21T07:28:33;12.30;;;3.70;;
73321;SDS011;61549;37.044;22.128;2022-08-21T07:31:00;7.20;;;3.40;;
73321;SDS011;61549;37.044;22.128;2022-08-21T07:33:27;8.73;;;2.85;;
73321;SDS011;61549;37.044;22.128;2022-08-21T07:35:55;9.50;;;3.08;;
73321;SDS011;61549;37.044;22.128;2022-08-21T07:38:21;11.93;;;3.13;;
73321;SDS011;61549;37.044;22.128;2022-08-21T07:40:48;9.10;;;2.90;;
73321;SDS011;61549;37.044;22.128;2022-08-21T07:43:15;8.52;;;2.90;;
73321;SDS011;61549;37.044;22.128;2022-08-21T07:45:42;11.25;;;2.90;;
73321;SDS011;61549;37.044;22.128;2022-08-21T07:48:09;9.85;;;3.22;;
73321;SDS011;61549;37.044;22.128;2022-08-21T07:50:37;10.82;;;3.30;;
73321;SDS011;61549;37.044;22.128;2022-08-21T07:55:40;9.45;;;3.15;;
73321;SDS011;61549;37.044;22.128;2022-08-21T07:58:06;7.75;;;2.97;;
73321;SDS011;61549;37.044;22.128;2022-08-21T08:00:32;11.80;;;3.00;;
73321;SDS011;61549;37.044;22.128;2022-08-21T08:03:01;8.85;;;3.00;;
73321;SDS011;61549;37.044;22.128;2022-08-21T08:05:28;9.30;;;3.03;;
73321;SDS011;61549;37.044;22.128;2022-08-21T08:07:55;7.82;;;2.97;;
73321;SDS011;61549;37.044;22.128;2022-08-21T08:10:21;8.77;;;3.10;;
73321;SDS011;61549;37.044;22.128;2022-08-21T08:12:48;9.48;;;3.50;;
73321;SDS011;61549;37.044;22.128;2022-08-21T08:15:17;10.65;;;3.10;;
73321;SDS011;61549;37.044;22.128;2022-08-21T08:17:46;6.93;;;2.72;;
73321;SDS011;61549;37.044;22.128;2022-08-21T08:20:13;9.70;;;3.08;;
73321;SDS011;61549;37.044;22.128;2022-08-21T08:22:41;9.38;;;3.40;;
73321;SDS011;61549;37.044;22.128;2022-08-21T08:25:08;9.13;;;3.10;;
73321;SDS011;61549;37.044;22.128;2022-08-21T08:27:36;7.53;;;3.20;;
73321;SDS011;61549;37.044;22.128;2022-08-21T08:30:03;7.25;;;3.17;;
73321;SDS011;61549;37.044;22.128;2022-08-21T08:32:30;9.90;;;3.22;;
73321;SDS011;61549;37.044;22.128;2022-08-21T08:34:56;10.20;;;3.20;;
73321;SDS011;61549;37.044;22.128;2022-08-21T08:37:22;9.85;;;3.30;;
73321;SDS011;61549;37.044;22.128;2022-08-21T08:39:47;10.15;;;3.30;;
73321;SDS011;61549;37.044;22.128;2022-08-21T08:44:46;9.30;;;3.35;;
73321;SDS011;61549;37.044;22.128;2022-08-21T08:47:13;8.50;;;3.15;;
73321;SDS011;61549;37.044;22.128;2022-08-21T08:49:48;12.00;;;3.60;;
73321;SDS011;61549;37.044;22.128;2022-08-21T08:52:21;6.85;;;2.88;;
73321;SDS011;61549;37.044;22.128;2022-08-21T08:57:42;7.88;;;3.20;;
73321;SDS011;61549;37.044;22.128;2022-08-21T09:00:12;8.75;;;3.70;;
73321;SDS011;61549;37.044;22.128;2022-08-21T09:02:41;10.77;;;3.35;;
73321;SDS011;61549;37.044;22.128;2022-08-21T09:05:09;12.07;;;3.53;;
73321;SDS011;61549;37.044;22.128;2022-08-21T09:08:12;6.93;;;3.28;;
73321;SDS011;61549;37.044;22.128;2022-08-21T09:11:01;7.93;;;3.13;;
73321;SDS011;61549;37.044;22.128;2022-08-21T09:16:47;9.77;;;3.55;;
73321;SDS011;61549;37.044;22.128;2022-08-21T09:27:23;8.23;;;3.03;;
73321;SDS011;61549;37.044;22.128;2022-08-21T09:29:50;9.43;;;3.20;;
73321;SDS011;61549;37.044;22.128;2022-08-21T09:32:22;9.98;;;3.05;;
73321;SDS011;61549;37.044;22.128;2022-08-21T09:35:07;9.40;;;3.25;;
73321;SDS011;61549;37.044;22.128;2022-08-21T09:37:49;10.63;;;3.40;;
73321;SDS011;61549;37.044;22.128;2022-08-21T09:43:02;9.27;;;3.40;;
73321;SDS011;61549;37.044;22.128;2022-08-21T09:45:32;6.30;;;3.00;;
73321;SDS011;61549;37.044;22.128;2022-08-21T09:48:09;10.30;;;3.50;;
73321;SDS011;61549;37.044;22.128;2022-08-21T09:51:10;9.27;;;3.05;;
73321;SDS011;61549;37.044;22.128;2022-08-21T09:53:42;8.93;;;3.58;;
73321;SDS011;61549;37.044;22.128;2022-08-21T09:56:21;7.47;;;3.22;;
73321;SDS011;61549;37.044;22.128;2022-08-21T09:59:13;8.95;;;3.00;;
73321;SDS011;61549;37.044;22.128;2022-08-21T10:01:43;9.35;;;3.17;;
73321;SDS011;61549;37.044;22.128;2022-08-21T10:04:12;8.93;;;3.38;;
73321;SDS011;61549;37.044;22.128;2022-08-21T10:06:38;8.40;;;3.10;;
73321;SDS011;61549;37.044;22.128;2022-08-21T10:09:06;8.88;;;3.00;;
73321;SDS011;61549;37.044;22.128;2022-08-21T10:11:42;8.10;;;3.22;;
73321;SDS011;61549;37.044;22.128;2022-08-21T10:19:54;6.30;;;2.78;;
73321;SDS011;61549;37.044;22.128;2022-08-21T10:25:19;6.57;;;3.10;;
73321;SDS011;61549;37.044;22.128;2022-08-21T10:28:00;9.88;;;3.17;;
73321;SDS011;61549;37.044;22.128;2022-08-21T10:30:50;6.10;;;2.97;;
73321;SDS011;61549;37.044;22.128;2022-08-21T10:38:46;9.35;;;3.20;;
73321;SDS011;61549;37.044;22.128;2022-08-21T10:50:03;9.27;;;3.10;;
73321;SDS011;61549;37.044;22.128;2022-08-21T10:55:13;10.95;;;3.20;;
73321;SDS011;61549;37.044;22.128;2022-08-21T11:00:48;10.60;;;3.00;;
73321;SDS011;61549;37.044;22.128;2022-08-21T11:06:09;9.10;;;2.90;;
73321;SDS011;61549;37.044;22.128;2022-08-21T11:08:45;9.38;;;2.92;;
73321;SDS011;61549;37.044;22.128;2022-08-21T11:11:35;8.35;;;2.83;;
73321;SDS011;61549;37.044;22.128;2022-08-21T11:17:13;9.05;;;3.17;;
73321;SDS011;61549;37.044;22.128;2022-08-21T11:25:09;9.27;;;2.92;;
73321;SDS011;61549;37.044;22.128;2022-08-21T11:30:19;11.65;;;3.38;;
73321;SDS011;61549;37.044;22.128;2022-08-21T11:35:49;9.40;;;2.85;;
73321;SDS011;61549;37.044;22.128;2022-08-21T11:38:37;14.43;;;3.40;;
73321;SDS011;61549;37.044;22.128;2022-08-21T11:49:42;9.23;;;2.80;;
73321;SDS011;61549;37.044;22.128;2022-08-21T11:58:01;7.95;;;3.00;;
73321;SDS011;61549;37.044;22.128;2022-08-21T12:00:47;8.60;;;2.50;;
73321;SDS011;61549;37.044;22.128;2022-08-21T12:06:06;10.35;;;2.75;;
73321;SDS011;61549;37.044;22.128;2022-08-21T12:08:45;8.55;;;2.55;;
73321;SDS011;61549;37.044;22.128;2022-08-21T12:11:23;7.32;;;2.40;;
73321;SDS011;61549;37.044;22.128;2022-08-21T12:13:55;7.30;;;2.53;;
73321;SDS011;61549;37.044;22.128;2022-08-21T12:16:35;6.97;;;2.60;;
73321;SDS011;61549;37.044;22.128;2022-08-21T12:21:50;10.23;;;3.08;;
73321;SDS011;61549;37.044;22.128;2022-08-21T12:24:29;6.43;;;2.40;;
73321;SDS011;61549;37.044;22.128;2022-08-21T12:29:51;8.50;;;2.70;;
73321;SDS011;61549;37.044;22.128;2022-08-21T12:32:24;9.95;;;2.90;;
73321;SDS011;61549;37.044;22.128;2022-08-21T12:34:52;7.93;;;2.72;;
73321;SDS011;61549;37.044;22.128;2022-08-21T12:40:18;9.00;;;3.08;;
73321;SDS011;61549;37.044;22.128;2022-08-21T12:42:49;9.60;;;2.80;;
73321;SDS011;61549;37.044;22.128;2022-08-21T12:45:31;10.80;;;2.92;;
73321;SDS011;61549;37.044;22.128;2022-08-21T12:48:00;6.88;;;2.40;;
73321;SDS011;61549;37.044;22.128;2022-08-21T12:53:48;5.95;;;2.38;;
73321;SDS011;61549;37.044;22.128;2022-08-21T12:56:22;7.45;;;2.70;;
73321;SDS011;61549;37.044;22.128;2022-08-21T12:58:51;7.47;;;2.88;;
73321;SDS011;61549;37.044;22.128;2022-08-21T13:02:01;8.15;;;3.42;;
73321;SDS011;61549;37.044;22.128;2022-08-21T13:04:27;8.63;;;2.95;;
73321;SDS011;61549;37.044;22.128;2022-08-21T13:07:06;8.35;;;3.10;;
73321;SDS011;61549;37.044;22.128;2022-08-21T13:09:36;7.35;;;2.92;;
73321;SDS011;61549;37.044;22.128;2022-08-21T13:12:20;11.57;;;2.92;;
73321;SDS011;61549;37.044;22.128;2022-08-21T13:14:47;9.40;;;2.83;;
73321;SDS011;61549;37.044;22.128;2022-08-21T13:17:17;8.73;;;3.05;;
73321;SDS011;61549;37.044;22.128;2022-08-21T13:19:58;6.22;;;2.50;;
73321;SDS011;61549;37.044;22.128;2022-08-21T13:22:26;7.57;;;2.72;;
73321;SDS011;61549;37.044;22.128;2022-08-21T13:24:52;9.77;;;2.75;;
73321;SDS011;61549;37.044;22.128;2022-08-21T13:27:29;7.68;;;2.80;;
73321;SDS011;61549;37.044;22.128;2022-08-21T13:30:18;9.05;;;3.30;;
73321;SDS011;61549;37.044;22.128;2022-08-21T13:32:47;7.22;;;3.22;;
73321;SDS011;61549;37.044;22.128;2022-08-21T13:35:21;10.23;;;3.25;;
73321;SDS011;61549;37.044;22.128;2022-08-21T13:37:53;12.50;;;3.60;;
73321;SDS011;61549;37.044;22.128;2022-08-21T13:43:13;12.05;;;3.15;;
73321;SDS011;61549;37.044;22.128;2022-08-21T13:45:58;6.80;;;3.10;;
73321;SDS011;61549;37.044;22.128;2022-08-21T13:48:28;11.27;;;3.08;;
73321;SDS011;61549;37.044;22.128;2022-08-21T13:50:57;9.63;;;3.30;;
73321;SDS011;61549;37.044;22.128;2022-08-21T13:56:02;7.75;;;3.03;;
73321;SDS011;61549;37.044;22.128;2022-08-21T13:58:31;7.15;;;2.70;;
73321;SDS011;61549;37.044;22.128;2022-08-21T14:01:15;8.23;;;3.03;;
73321;SDS011;61549;37.044;22.128;2022-08-21T14:03:55;13.05;;;3.50;;
73321;SDS011;61549;37.044;22.128;2022-08-21T14:06:28;10.93;;;3.15;;
73321;SDS011;61549;37.044;22.128;2022-08-21T14:09:00;8.80;;;3.00;;
73321;SDS011;61549;37.044;22.128;2022-08-21T14:11:33;10.38;;;2.92;;
73321;SDS011;61549;37.044;22.128;2022-08-21T14:14:02;6.88;;;2.95;;
73321;SDS011;61549;37.044;22.128;2022-08-21T14:16:44;9.77;;;2.95;;
73321;SDS011;61549;37.044;22.128;2022-08-21T14:19:25;9.40;;;2.78;;
73321;SDS011;61549;37.044;22.128;2022-08-21T14:21:53;8.23;;;2.80;;
73321;SDS011;61549;37.044;22.128;2022-08-21T14:26:49;6.82;;;2.80;;
73321;SDS011;61549;37.044;22.128;2022-08-21T14:29:24;8.43;;;3.10;;
73321;SDS011;61549;37.044;22.128;2022-08-21T14:34:46;7.38;;;2.72;;
73321;SDS011;61549;37.044;22.128;2022-08-21T14:37:21;8.50;;;3.08;;
73321;SDS011;61549;37.044;22.128;2022-08-21T14:39:48;8.68;;;3.17;;
73321;SDS011;61549;37.044;22.128;2022-08-21T14:42:14;8.45;;;3.00;;
73321;SDS011;61549;37.044;22.128;2022-08-21T14:44:40;13.45;;;2.92;;
73321;SDS011;61549;37.044;22.128;2022-08-21T14:47:06;8.65;;;2.75;;
73321;SDS011;61549;37.044;22.128;2022-08-21T14:49:40;9.20;;;3.00;;
73321;SDS011;61549;37.044;22.128;2022-08-21T14:52:05;9.18;;;3.03;;
73321;SDS011;61549;37.044;22.128;2022-08-21T14:54:31;6.55;;;2.75;;
73321;SDS011;61549;37.044;22.128;2022-08-21T14:57:08;8.82;;;2.55;;
73321;SDS011;61549;37.044;22.128;2022-08-21T14:59:35;7.30;;;2.70;;
73321;SDS011;61549;37.044;22.128;2022-08-21T15:02:05;7.95;;;2.80;;
73321;SDS011;61549;37.044;22.128;2022-08-21T15:04:32;7.70;;;2.90;;
73321;SDS011;61549;37.044;22.128;2022-08-21T15:06:59;11.10;;;3.00;;
73321;SDS011;61549;37.044;22.128;2022-08-21T15:09:25;9.63;;;2.67;;
73321;SDS011;61549;37.044;22.128;2022-08-21T15:11:53;5.65;;;2.40;;
73321;SDS011;61549;37.044;22.128;2022-08-21T15:14:24;6.55;;;2.35;;
73321;SDS011;61549;37.044;22.128;2022-08-21T15:16:51;6.65;;;2.63;;
73321;SDS011;61549;37.044;22.128;2022-08-21T15:19:18;8.70;;;2.92;;
73321;SDS011;61549;37.044;22.128;2022-08-21T15:21:44;9.57;;;2.70;;
73321;SDS011;61549;37.044;22.128;2022-08-21T15:24:09;11.23;;;3.17;;
73321;SDS011;61549;37.044;22.128;2022-08-21T15:26:35;6.95;;;2.80;;
73321;SDS011;61549;37.044;22.128;2022-08-21T15:29:02;9.98;;;3.00;;
73321;SDS011;61549;37.044;22.128;2022-08-21T15:31:31;7.80;;;2.50;;
73321;SDS011;61549;37.044;22.128;2022-08-21T15:33:57;7.82;;;2.40;;
73321;SDS011;61549;37.044;22.128;2022-08-21T15:36:24;7.53;;;2.70;;
73321;SDS011;61549;37.044;22.128;2022-08-21T15:38:50;8.95;;;2.60;;
73321;SDS011;61549;37.044;22.128;2022-08-21T15:41:16;8.20;;;2.88;;
73321;SDS011;61549;37.044;22.128;2022-08-21T15:43:48;7.05;;;2.50;;
73321;SDS011;61549;37.044;22.128;2022-08-21T15:46:17;6.25;;;2.50;;
73321;SDS011;61549;37.044;22.128;2022-08-21T15:48:44;8.23;;;2.92;;
73321;SDS011;61549;37.044;22.128;2022-08-21T15:54:30;13.00;;;3.10;;
73321;SDS011;61549;37.044;22.128;2022-08-21T15:56:59;9.77;;;3.13;;
73321;SDS011;61549;37.044;22.128;2022-08-21T15:59:25;7.75;;;2.65;;
73321;SDS011;61549;37.044;22.128;2022-08-21T16:01:52;8.88;;;2.72;;
73321;SDS011;61549;37.044;22.128;2022-08-21T16:04:19;9.27;;;2.67;;
73321;SDS011;61549;37.044;22.128;2022-08-21T16:06:51;6.35;;;2.60;;
73321;SDS011;61549;37.044;22.128;2022-08-21T16:09:18;7.88;;;2.60;;
73321;SDS011;61549;37.044;22.128;2022-08-21T16:11:44;8.65;;;3.15;;
73321;SDS011;61549;37.044;22.128;2022-08-21T16:14:14;9.00;;;2.92;;
73321;SDS011;61549;37.044;22.128;2022-08-21T16:16:41;9.40;;;2.92;;
73321;SDS011;61549;37.044;22.128;2022-08-21T16:19:08;8.40;;;3.10;;
73321;SDS011;61549;37.044;22.128;2022-08-21T16:21:42;11.95;;;3.50;;
73321;SDS011;61549;37.044;22.128;2022-08-21T16:24:09;9.88;;;2.83;;
73321;SDS011;61549;37.044;22.128;2022-08-21T16:26:35;7.65;;;2.60;;
73321;SDS011;61549;37.044;22.128;2022-08-21T16:29:01;9.10;;;3.10;;
73321;SDS011;61549;37.044;22.128;2022-08-21T16:31:29;9.00;;;3.03;;